sensor_id;sensor_type;location;lat;lon;timestamp;pressure;altitude;pressure_sealevel;temperature;humidity
20027;BME280;10174;42.688;23.344;2023-02-01T00:00:50;95426.81;;;0.41;78.97
20027;BME280;10174;42.688;23.344;2023-02-01T00:03:16;95436.78;;;0.39;79.40
20027;BME280;10174;42.688;23.344;2023-02-01T00:05:44;95440.25;;;0.40;79.22
20027;BME280;10174;42.688;23.344;2023-02-01T00:08:09;95439.66;;;0.44;79.24
20027;BME280;10174;42.688;23.344;2023-02-01T00:10:34;95431.50;;;0.39;78.40
20027;BME280;10174;42.688;23.344;2023-02-01T00:13:00;95454.78;;;0.64;78.54
20027;BME280;10174;42.688;23.344;2023-02-01T00:15:25;95462.28;;;0.53;79.10
20027;BME280;10174;42.688;23.344;2023-02-01T00:17:54;95460.84;;;0.51;79.06
20027;BME280;10174;42.688;23.344;2023-02-01T00:20:20;95355.47;;;-0.07;78.97
20027;BME280;10174;42.688;23.344;2023-02-01T00:22:45;95447.38;;;0.39;78.99
20027;BME280;10174;42.688;23.344;2023-02-01T00:25:11;95434.75;;;0.41;78.59
20027;BME280;10174;42.688;23.344;2023-02-01T00:27:36;95445.50;;;0.33;78.39
20027;BME280;10174;42.688;23.344;2023-02-01T00:30:02;95450.22;;;0.44;78.66
20027;BME280;10174;42.688;23.344;2023-02-01T00:32:28;95438.84;;;0.44;78.46
20027;BME280;10174;42.688;23.344;2023-02-01T00:34:53;95458.78;;;0.46;78.02
20027;BME280;10174;42.688;23.344;2023-02-01T00:37:18;95440.44;;;0.38;77.54
20027;BME280;10174;42.688;23.344;2023-02-01T00:39:44;95448.81;;;0.48;76.70
20027;BME280;10174;42.688;23.344;2023-02-01T00:42:09;95453.91;;;0.50;77.06
20027;BME280;10174;42.688;23.344;2023-02-01T00:44:35;95431.91;;;0.43;76.40
20027;BME280;10174;42.688;23.344;2023-02-01T00:47:01;95441.97;;;0.61;76.21
20027;BME280;10174;42.688;23.344;2023-02-01T00:49:27;95448.25;;;0.53;75.75
20027;BME280;10174;42.688;23.344;2023-02-01T00:51:53;95435.22;;;0.51;75.46
20027;BME280;10174;42.688;23.344;2023-02-01T00:54:18;95422.97;;;0.44;74.47
20027;BME280;10174;42.688;23.344;2023-02-01T00:56:43;95419.69;;;0.35;74.17
20027;BME280;10174;42.688;23.344;2023-02-01T00:59:12;95440.28;;;0.46;74.31
20027;BME280;10174;42.688;23.344;2023-02-01T01:01:38;95432.34;;;0.46;74.50
20027;BME280;10174;42.688;23.344;2023-02-01T01:04:03;95408.31;;;0.34;74.36
20027;BME280;10174;42.688;23.344;2023-02-01T01:06:31;95439.72;;;0.58;74.59
20027;BME280;10174;42.688;23.344;2023-02-01T01:08:59;95442.16;;;0.52;73.36
20027;BME280;10174;42.688;23.344;2023-02-01T01:11:27;95442.28;;;0.38;73.63
20027;BME280;10174;42.688;23.344;2023-02-01T01:13:54;95426.22;;;0.39;72.83
20027;BME280;10174;42.688;23.344;2023-02-01T01:16:21;95393.91;;;0.02;73.40
20027;BME280;10174;42.688;23.344;2023-02-01T01:18:47;95366.16;;;-0.22;73.03
20027;BME280;10174;42.688;23.344;2023-02-01T01:21:14;95428.41;;;0.29;73.28
20027;BME280;10174;42.688;23.344;2023-02-01T01:23:40;95429.44;;;0.34;73.48
20027;BME280;10174;42.688;23.344;2023-02-01T01:26:09;95428.00;;;0.32;72.63
20027;BME280;10174;42.688;23.344;2023-02-01T01:28:35;95427.47;;;0.43;72.57
20027;BME280;10174;42.688;23.344;2023-02-01T01:31:00;95424.44;;;0.46;71.91
20027;BME280;10174;42.688;23.344;2023-02-01T01:33:26;95418.91;;;0.41;71.73
20027;BME280;10174;42.688;23.344;2023-02-01T01:35:51;95421.34;;;0.43;71.37
20027;BME280;10174;42.688;23.344;2023-02-01T01:38:17;95439.09;;;0.49;70.33
20027;BME280;10174;42.688;23.344;2023-02-01T01:40:46;95451.47;;;0.48;70.68
20027;BME280;10174;42.688;23.344;2023-02-01T01:43:18;95441.09;;;0.47;70.39
20027;BME280;10174;42.688;23.344;2023-02-01T01:45:44;95437.84;;;0.45;70.54
20027;BME280;10174;42.688;23.344;2023-02-01T01:48:16;95429.63;;;0.26;70.82
20027;BME280;10174;42.688;23.344;2023-02-01T01:50:46;95339.63;;;-0.42;70.42
20027;BME280;10174;42.688;23.344;2023-02-01T01:53:18;95432.16;;;0.06;70.92
20027;BME280;10174;42.688;23.344;2023-02-01T01:55:46;95435.38;;;0.02;71.12
20027;BME280;10174;42.688;23.344;2023-02-01T01:58:17;95448.78;;;0.00;71.00
20027;BME280;10174;42.688;23.344;2023-02-01T02:00:44;95443.84;;;-0.03;70.81
20027;BME280;10174;42.688;23.344;2023-02-01T02:03:20;95426.78;;;-0.07;70.41
20027;BME280;10174;42.688;23.344;2023-02-01T02:05:49;95411.38;;;-0.32;70.89
20027;BME280;10174;42.688;23.344;2023-02-01T02:08:16;95335.75;;;-0.75;70.92
20027;BME280;10174;42.688;23.344;2023-02-01T02:10:43;95432.78;;;-0.20;70.90
20027;BME280;10174;42.688;23.344;2023-02-01T02:13:41;95421.69;;;-0.37;72.65
20027;BME280;10174;42.688;23.344;2023-02-01T02:22:33;95424.78;;;-0.33;72.65
20027;BME280;10174;42.688;23.344;2023-02-01T02:25:27;95427.63;;;-0.35;72.61
20027;BME280;10174;42.688;23.344;2023-02-01T02:28:22;95428.22;;;-0.33;72.36
20027;BME280;10174;42.688;23.344;2023-02-01T02:36:38;95439.97;;;-0.36;71.65
20027;BME280;10174;42.688;23.344;2023-02-01T02:42:01;95366.78;;;-0.77;71.13
20027;BME280;10174;42.688;23.344;2023-02-01T02:56:32;95428.63;;;-0.36;72.94
20027;BME280;10174;42.688;23.344;2023-02-01T02:59:19;95315.31;;;-0.94;73.60
20027;BME280;10174;42.688;23.344;2023-02-01T03:02:05;95427.47;;;-0.27;72.96
20027;BME280;10174;42.688;23.344;2023-02-01T03:04:54;95415.91;;;-0.26;73.18
20027;BME280;10174;42.688;23.344;2023-02-01T03:10:13;95420.91;;;-0.31;72.97
20027;BME280;10174;42.688;23.344;2023-02-01T03:12:43;95446.88;;;-0.06;72.48
20027;BME280;10174;42.688;23.344;2023-02-01T03:15:24;95458.00;;;-0.17;72.12
20027;BME280;10174;42.688;23.344;2023-02-01T03:17:53;95434.84;;;-0.15;71.48
20027;BME280;10174;42.688;23.344;2023-02-01T03:20:22;95459.72;;;-0.03;70.67
20027;BME280;10174;42.688;23.344;2023-02-01T03:22:49;95461.75;;;-0.05;70.92
20027;BME280;10174;42.688;23.344;2023-02-01T03:25:25;95459.25;;;-0.13;71.19
20027;BME280;10174;42.688;23.344;2023-02-01T03:27:56;95458.00;;;-0.17;70.83
20027;BME280;10174;42.688;23.344;2023-02-01T03:30:26;95459.25;;;-0.13;70.32
20027;BME280;10174;42.688;23.344;2023-02-01T03:32:54;95438.81;;;-0.26;70.12
20027;BME280;10174;42.688;23.344;2023-02-01T03:35:56;95458.88;;;-0.10;70.31
20027;BME280;10174;42.688;23.344;2023-02-01T03:41:06;95461.69;;;-0.12;70.65
20027;BME280;10174;42.688;23.344;2023-02-01T03:43:38;95465.00;;;-0.03;70.46
20027;BME280;10174;42.688;23.344;2023-02-01T03:46:11;95462.22;;;0.05;69.75
20027;BME280;10174;42.688;23.344;2023-02-01T03:48:39;95469.91;;;0.00;69.96
20027;BME280;10174;42.688;23.344;2023-02-01T03:51:06;95460.47;;;-0.09;70.21
20027;BME280;10174;42.688;23.344;2023-02-01T03:53:35;95463.75;;;-0.07;69.76
20027;BME280;10174;42.688;23.344;2023-02-01T03:56:02;95465.72;;;-0.16;69.88
20027;BME280;10174;42.688;23.344;2023-02-01T03:58:28;95464.09;;;-0.17;69.97
20027;BME280;10174;42.688;23.344;2023-02-01T04:00:56;95352.72;;;-0.84;70.54
20027;BME280;10174;42.688;23.344;2023-02-01T04:03:22;95458.81;;;-0.17;70.47
20027;BME280;10174;42.688;23.344;2023-02-01T04:05:49;95460.25;;;-0.14;70.08
20027;BME280;10174;42.688;23.344;2023-02-01T04:08:15;95462.53;;;-0.05;70.12
20027;BME280;10174;42.688;23.344;2023-02-01T04:10:40;95440.56;;;-0.12;70.11
20027;BME280;10174;42.688;23.344;2023-02-01T04:13:05;95448.78;;;0.00;69.68
20027;BME280;10174;42.688;23.344;2023-02-01T04:15:31;95460.97;;;0.01;69.99
20027;BME280;10174;42.688;23.344;2023-02-01T04:17:57;95458.31;;;0.01;70.18
20027;BME280;10174;42.688;23.344;2023-02-01T04:20:22;95433.84;;;-0.14;70.18
20027;BME280;10174;42.688;23.344;2023-02-01T04:22:47;95449.59;;;0.01;69.97
20027;BME280;10174;42.688;23.344;2023-02-01T04:25:13;95450.47;;;0.08;70.27
20027;BME280;10174;42.688;23.344;2023-02-01T04:27:38;95468.59;;;0.17;70.40
20027;BME280;10174;42.688;23.344;2023-02-01T04:30:04;95441.09;;;0.05;70.38
20027;BME280;10174;42.688;23.344;2023-02-01T04:32:30;95377.56;;;-0.15;69.71
20027;BME280;10174;42.688;23.344;2023-02-01T04:34:55;95454.28;;;0.40;69.99
20027;BME280;10174;42.688;23.344;2023-02-01T04:37:20;95464.00;;;0.33;70.16
20027;BME280;10174;42.688;23.344;2023-02-01T04:39:46;95423.88;;;0.16;70.69
20027;BME280;10174;42.688;23.344;2023-02-01T04:42:12;95435.31;;;0.30;70.41
20027;BME280;10174;42.688;23.344;2023-02-01T04:44:38;95452.84;;;0.38;70.70
20027;BME280;10174;42.688;23.344;2023-02-01T04:47:07;95408.19;;;0.08;70.63
20027;BME280;10174;42.688;23.344;2023-02-01T04:49:32;95453.81;;;0.30;71.14
20027;BME280;10174;42.688;23.344;2023-02-01T04:51:58;95458.34;;;0.43;70.98
20027;BME280;10174;42.688;23.344;2023-02-01T04:54:24;95476.03;;;0.35;71.39
20027;BME280;10174;42.688;23.344;2023-02-01T04:56:50;95449.41;;;0.37;71.97
20027;BME280;10174;42.688;23.344;2023-02-01T04:59:15;95433.84;;;0.21;71.79
20027;BME280;10174;42.688;23.344;2023-02-01T05:01:41;95475.44;;;0.40;71.87
20027;BME280;10174;42.688;23.344;2023-02-01T05:04:06;95448.53;;;0.30;71.80
20027;BME280;10174;42.688;23.344;2023-02-01T05:06:31;95483.19;;;0.48;72.41
20027;BME280;10174;42.688;23.344;2023-02-01T05:08:57;95456.75;;;0.42;71.52
20027;BME280;10174;42.688;23.344;2023-02-01T05:11:22;95465.25;;;0.37;71.80
20027;BME280;10174;42.688;23.344;2023-02-01T05:14:06;95496.63;;;0.47;72.48
20027;BME280;10174;42.688;23.344;2023-02-01T05:16:31;95433.53;;;0.02;72.42
20027;BME280;10174;42.688;23.344;2023-02-01T05:18:57;95139.56;;;-1.87;72.12
20027;BME280;10174;42.688;23.344;2023-02-01T05:21:22;95501.88;;;0.40;72.90
20027;BME280;10174;42.688;23.344;2023-02-01T05:23:47;95487.63;;;0.41;72.72
20027;BME280;10174;42.688;23.344;2023-02-01T05:26:31;95430.72;;;0.04;73.51
20027;BME280;10174;42.688;23.344;2023-02-01T05:28:57;95486.47;;;0.50;73.01
20027;BME280;10174;42.688;23.344;2023-02-01T05:31:23;95488.38;;;0.63;72.56
20027;BME280;10174;42.688;23.344;2023-02-01T05:33:48;95480.81;;;0.53;72.34
20027;BME280;10174;42.688;23.344;2023-02-01T05:36:14;95499.53;;;0.59;72.43
20027;BME280;10174;42.688;23.344;2023-02-01T05:38:39;95477.13;;;0.55;72.38
20027;BME280;10174;42.688;23.344;2023-02-01T05:41:05;95486.13;;;0.67;72.65
20027;BME280;10174;42.688;23.344;2023-02-01T05:43:30;95463.31;;;0.59;72.38
20027;BME280;10174;42.688;23.344;2023-02-01T05:45:55;95471.28;;;0.66;72.13
20027;BME280;10174;42.688;23.344;2023-02-01T05:48:21;95460.53;;;0.67;71.90
20027;BME280;10174;42.688;23.344;2023-02-01T05:50:46;95394.44;;;0.26;72.17
20027;BME280;10174;42.688;23.344;2023-02-01T05:53:12;95486.22;;;0.87;71.46
20027;BME280;10174;42.688;23.344;2023-02-01T05:55:38;95477.25;;;0.81;71.47
20027;BME280;10174;42.688;23.344;2023-02-01T05:58:04;95455.47;;;0.79;71.29
20027;BME280;10174;42.688;23.344;2023-02-01T06:00:30;95392.44;;;0.34;71.02
20027;BME280;10174;42.688;23.344;2023-02-01T06:02:56;95494.41;;;0.99;70.49
20027;BME280;10174;42.688;23.344;2023-02-01T06:05:22;95473.03;;;0.94;70.58
20027;BME280;10174;42.688;23.344;2023-02-01T06:07:47;95478.75;;;1.04;70.29
20027;BME280;10174;42.688;23.344;2023-02-01T06:10:13;95495.25;;;1.06;70.02
20027;BME280;10174;42.688;23.344;2023-02-01T06:12:38;95499.94;;;1.11;69.69
20027;BME280;10174;42.688;23.344;2023-02-01T06:15:04;95427.16;;;0.73;69.97
20027;BME280;10174;42.688;23.344;2023-02-01T06:17:30;95495.69;;;1.16;69.52
20027;BME280;10174;42.688;23.344;2023-02-01T06:19:55;95487.50;;;1.11;69.09
20027;BME280;10174;42.688;23.344;2023-02-01T06:22:20;95504.44;;;1.23;68.74
20027;BME280;10174;42.688;23.344;2023-02-01T06:24:47;95505.09;;;1.26;69.25
20027;BME280;10174;42.688;23.344;2023-02-01T06:27:13;95393.38;;;0.68;68.78
20027;BME280;10174;42.688;23.344;2023-02-01T06:29:38;95425.97;;;0.82;68.79
20027;BME280;10174;42.688;23.344;2023-02-01T06:32:04;95502.00;;;1.22;69.29
20027;BME280;10174;42.688;23.344;2023-02-01T06:34:29;95498.56;;;1.28;68.78
20027;BME280;10174;42.688;23.344;2023-02-01T06:36:55;95501.00;;;1.30;68.98
20027;BME280;10174;42.688;23.344;2023-02-01T06:39:20;95502.03;;;1.35;68.09
20027;BME280;10174;42.688;23.344;2023-02-01T06:41:47;95416.22;;;0.89;68.27
20027;BME280;10174;42.688;23.344;2023-02-01T06:44:13;95471.28;;;1.28;67.81
20027;BME280;10174;42.688;23.344;2023-02-01T06:46:38;95401.16;;;0.90;67.20
20027;BME280;10174;42.688;23.344;2023-02-01T06:49:04;95485.75;;;1.38;67.86
20027;BME280;10174;42.688;23.344;2023-02-01T06:51:29;95513.28;;;1.57;67.80
20027;BME280;10174;42.688;23.344;2023-02-01T06:53:55;95517.34;;;1.60;67.21
20027;BME280;10174;42.688;23.344;2023-02-01T06:56:20;95531.03;;;1.64;67.07
20027;BME280;10174;42.688;23.344;2023-02-01T06:58:45;95506.75;;;1.53;67.42
20027;BME280;10174;42.688;23.344;2023-02-01T07:01:12;95529.19;;;1.71;66.92
20027;BME280;10174;42.688;23.344;2023-02-01T07:03:38;95538.56;;;1.73;66.56
20027;BME280;10174;42.688;23.344;2023-02-01T07:06:04;95515.31;;;1.55;66.85
20027;BME280;10174;42.688;23.344;2023-02-01T07:08:31;95543.03;;;1.59;67.21
20027;BME280;10174;42.688;23.344;2023-02-01T07:11:01;95519.59;;;1.56;66.50
20027;BME280;10174;42.688;23.344;2023-02-01T07:13:26;95511.47;;;1.58;66.23
20027;BME280;10174;42.688;23.344;2023-02-01T07:15:52;95547.97;;;1.76;66.48
20027;BME280;10174;42.688;23.344;2023-02-01T07:18:17;95556.91;;;1.82;66.33
20027;BME280;10174;42.688;23.344;2023-02-01T07:20:42;95530.00;;;1.65;66.06
20027;BME280;10174;42.688;23.344;2023-02-01T07:23:10;95560.59;;;1.87;66.10
20027;BME280;10174;42.688;23.344;2023-02-01T07:25:35;95566.28;;;1.91;65.83
20027;BME280;10174;42.688;23.344;2023-02-01T07:28:01;95563.06;;;1.95;65.44
20027;BME280;10174;42.688;23.344;2023-02-01T07:30:26;95545.72;;;1.80;65.57
20027;BME280;10174;42.688;23.344;2023-02-01T07:32:51;95555.69;;;1.84;66.02
20027;BME280;10174;42.688;23.344;2023-02-01T07:35:17;95544.69;;;1.74;65.50
20027;BME280;10174;42.688;23.344;2023-02-01T07:37:42;95542.03;;;1.74;65.45
20027;BME280;10174;42.688;23.344;2023-02-01T07:40:08;95566.72;;;1.94;65.34
20027;BME280;10174;42.688;23.344;2023-02-01T07:42:34;95541.81;;;1.75;65.48
20027;BME280;10174;42.688;23.344;2023-02-01T07:44:59;95558.97;;;1.93;64.46
20027;BME280;10174;42.688;23.344;2023-02-01T07:47:24;95571.41;;;2.06;64.53
20027;BME280;10174;42.688;23.344;2023-02-01T07:49:50;95575.09;;;2.05;64.46
20027;BME280;10174;42.688;23.344;2023-02-01T07:52:15;95481.28;;;1.46;64.41
20027;BME280;10174;42.688;23.344;2023-02-01T07:54:41;95591.19;;;2.10;64.53
20027;BME280;10174;42.688;23.344;2023-02-01T07:57:06;95418.88;;;0.89;64.63
20027;BME280;10174;42.688;23.344;2023-02-01T07:59:33;95595.69;;;2.03;64.46
20027;BME280;10174;42.688;23.344;2023-02-01T08:01:59;95603.22;;;2.06;64.42
20027;BME280;10174;42.688;23.344;2023-02-01T08:04:24;95598.94;;;2.18;64.91
20027;BME280;10174;42.688;23.344;2023-02-01T08:06:50;95593.25;;;2.28;63.59
20027;BME280;10174;42.688;23.344;2023-02-01T08:09:15;95601.41;;;2.20;64.17
20027;BME280;10174;42.688;23.344;2023-02-01T08:11:41;95539.81;;;1.91;63.38
20027;BME280;10174;42.688;23.344;2023-02-01T08:14:06;95603.66;;;2.29;63.06
20027;BME280;10174;42.688;23.344;2023-02-01T08:16:32;95570.41;;;2.13;62.87
20027;BME280;10174;42.688;23.344;2023-02-01T08:19:00;95540.25;;;2.08;63.04
20027;BME280;10174;42.688;23.344;2023-02-01T08:21:27;95593.25;;;2.35;62.92
20027;BME280;10174;42.688;23.344;2023-02-01T08:24:05;95596.50;;;2.50;62.67
20027;BME280;10174;42.688;23.344;2023-02-01T08:26:31;95587.53;;;2.51;62.29
20027;BME280;10174;42.688;23.344;2023-02-01T08:28:59;95591.97;;;2.77;62.12
20027;BME280;10174;42.688;23.344;2023-02-01T08:31:27;95600.16;;;2.69;61.54
20027;BME280;10174;42.688;23.344;2023-02-01T08:33:58;95491.91;;;2.06;61.52
20027;BME280;10174;42.688;23.344;2023-02-01T08:36:26;95601.78;;;2.77;62.02
20027;BME280;10174;42.688;23.344;2023-02-01T08:38:52;95599.31;;;2.82;61.30
20027;BME280;10174;42.688;23.344;2023-02-01T08:41:20;95601.78;;;2.77;61.33
20027;BME280;10174;42.688;23.344;2023-02-01T08:43:46;95582.00;;;2.73;61.01
20027;BME280;10174;42.688;23.344;2023-02-01T08:46:13;95586.25;;;2.80;60.68
20027;BME280;10174;42.688;23.344;2023-02-01T08:48:38;95560.75;;;2.86;60.51
20027;BME280;10174;42.688;23.344;2023-02-01T08:51:06;95458.53;;;2.63;59.62
20027;BME280;10174;42.688;23.344;2023-02-01T08:53:32;95572.72;;;3.09;60.17
20027;BME280;10174;42.688;23.344;2023-02-01T08:55:58;95578.28;;;3.46;58.27
20027;BME280;10174;42.688;23.344;2023-02-01T08:58:23;95484.19;;;2.83;58.26
20027;BME280;10174;42.688;23.344;2023-02-01T09:00:49;95580.19;;;3.70;57.73
20027;BME280;10174;42.688;23.344;2023-02-01T09:03:15;95564.06;;;3.27;57.55
20027;BME280;10174;42.688;23.344;2023-02-01T09:05:40;95568.69;;;3.45;58.01
20027;BME280;10174;42.688;23.344;2023-02-01T09:08:06;95588.50;;;3.49;58.10
20027;BME280;10174;42.688;23.344;2023-02-01T09:10:33;95597.91;;;3.51;57.95
20027;BME280;10174;42.688;23.344;2023-02-01T09:12:58;95600.19;;;3.41;57.72
20027;BME280;10174;42.688;23.344;2023-02-01T09:15:24;95592.47;;;3.26;58.58
20027;BME280;10174;42.688;23.344;2023-02-01T09:17:49;95597.94;;;3.31;58.69
20027;BME280;10174;42.688;23.344;2023-02-01T09:20:15;95592.22;;;3.34;58.12
20027;BME280;10174;42.688;23.344;2023-02-01T09:22:41;95597.47;;;3.54;57.77
20027;BME280;10174;42.688;23.344;2023-02-01T09:25:07;95602.53;;;3.63;58.46
20027;BME280;10174;42.688;23.344;2023-02-01T09:27:33;95605.03;;;3.51;57.83
20027;BME280;10174;42.688;23.344;2023-02-01T09:29:59;95580.53;;;3.49;57.28
20027;BME280;10174;42.688;23.344;2023-02-01T09:32:24;95601.03;;;3.73;57.62
20027;BME280;10174;42.688;23.344;2023-02-01T09:34:50;95585.41;;;3.90;57.24
20027;BME280;10174;42.688;23.344;2023-02-01T09:37:16;95579.88;;;3.92;57.79
20027;BME280;10174;42.688;23.344;2023-02-01T09:39:42;95575.69;;;3.78;57.35
20027;BME280;10174;42.688;23.344;2023-02-01T09:47:21;95576.25;;;3.41;57.74
20027;BME280;10174;42.688;23.344;2023-02-01T09:51:10;95505.75;;;3.00;57.78
20027;BME280;10174;42.688;23.344;2023-02-01T09:53:32;95560.66;;;3.58;57.12
20027;BME280;10174;42.688;23.344;2023-02-01T09:56:04;95540.63;;;3.55;57.26
20027;BME280;10174;42.688;23.344;2023-02-01T09:58:41;95496.41;;;3.36;56.88
20027;BME280;10174;42.688;23.344;2023-02-01T10:01:18;95533.16;;;3.78;56.20
20027;BME280;10174;42.688;23.344;2023-02-01T10:03:44;95400.41;;;3.00;55.93
20027;BME280;10174;42.688;23.344;2023-02-01T10:20:44;95523.59;;;4.45;54.56
20027;BME280;10174;42.688;23.344;2023-02-01T10:26:24;95511.47;;;5.24;51.88
20027;BME280;10174;42.688;23.344;2023-02-01T10:28:56;95498.63;;;4.84;53.05
20027;BME280;10174;42.688;23.344;2023-02-01T10:31:26;95512.97;;;5.20;52.18
20027;BME280;10174;42.688;23.344;2023-02-01T10:33:58;95503.78;;;5.64;50.84
20027;BME280;10174;42.688;23.344;2023-02-01T10:36:34;95507.38;;;6.12;49.45
20027;BME280;10174;42.688;23.344;2023-02-01T10:39:03;95496.94;;;7.63;45.14
20027;BME280;10174;42.688;23.344;2023-02-01T10:41:34;95478.09;;;7.70;44.82
20027;BME280;10174;42.688;23.344;2023-02-01T10:44:03;95493.84;;;8.17;44.25
20027;BME280;10174;42.688;23.344;2023-02-01T10:46:30;95485.22;;;8.83;43.16
20027;BME280;10174;42.688;23.344;2023-02-01T10:48:58;95492.59;;;9.15;41.47
20027;BME280;10174;42.688;23.344;2023-02-01T10:51:47;95488.56;;;7.88;43.76
20027;BME280;10174;42.688;23.344;2023-02-01T10:54:20;95505.59;;;8.16;43.55
20027;BME280;10174;42.688;23.344;2023-02-01T10:56:46;95488.09;;;7.91;43.79
20027;BME280;10174;42.688;23.344;2023-02-01T10:59:21;95483.59;;;6.93;45.30
20027;BME280;10174;42.688;23.344;2023-02-01T11:01:49;95387.97;;;6.67;44.75
20027;BME280;10174;42.688;23.344;2023-02-01T11:04:19;95479.34;;;7.96;44.04
20027;BME280;10174;42.688;23.344;2023-02-01T11:06:49;95430.03;;;6.88;45.46
20027;BME280;10174;42.688;23.344;2023-02-01T11:09:24;95484.25;;;7.01;46.33
20027;BME280;10174;42.688;23.344;2023-02-01T11:17:00;95483.91;;;5.48;49.75
20027;BME280;10174;42.688;23.344;2023-02-01T11:19:27;95459.63;;;5.68;49.25
20027;BME280;10174;42.688;23.344;2023-02-01T11:21:57;95486.88;;;6.48;47.25
20027;BME280;10174;42.688;23.344;2023-02-01T11:26:49;95475.63;;;6.46;46.75
20027;BME280;10174;42.688;23.344;2023-02-01T11:29:17;95457.00;;;6.87;46.08
20027;BME280;10174;42.688;23.344;2023-02-01T11:31:47;95448.06;;;7.22;45.20
20027;BME280;10174;42.688;23.344;2023-02-01T11:34:18;95455.56;;;7.37;44.82
20027;BME280;10174;42.688;23.344;2023-02-01T11:36:47;95456.66;;;6.83;46.08
20027;BME280;10174;42.688;23.344;2023-02-01T11:44:31;95462.28;;;7.68;44.71
20027;BME280;10174;42.688;23.344;2023-02-01T11:49:42;95432.44;;;7.59;43.38
20027;BME280;10174;42.688;23.344;2023-02-01T12:09:21;95428.88;;;8.05;43.92
20027;BME280;10174;42.688;23.344;2023-02-01T12:12:19;95399.22;;;7.55;43.43
20027;BME280;10174;42.688;23.344;2023-02-01T12:28:29;95431.69;;;7.47;45.27
20027;BME280;10174;42.688;23.344;2023-02-01T12:33:35;95433.59;;;7.97;44.53
20027;BME280;10174;42.688;23.344;2023-02-01T12:44:58;95435.31;;;7.12;44.93
20027;BME280;10174;42.688;23.344;2023-02-01T12:50:28;95335.84;;;7.39;43.14
20027;BME280;10174;42.688;23.344;2023-02-01T12:53:25;95429.63;;;7.83;44.08
20027;BME280;10174;42.688;23.344;2023-02-01T12:55:57;95441.34;;;7.65;44.11
20027;BME280;10174;42.688;23.344;2023-02-01T13:01:05;95424.75;;;8.70;42.22
20027;BME280;10174;42.688;23.344;2023-02-01T13:06:03;95310.00;;;8.84;40.53
20027;BME280;10174;42.688;23.344;2023-02-01T13:08:40;95417.25;;;8.50;42.52
20027;BME280;10174;42.688;23.344;2023-02-01T13:11:30;95434.66;;;8.69;41.06
20027;BME280;10174;42.688;23.344;2023-02-01T13:14:37;95423.19;;;8.35;41.78
20027;BME280;10174;42.688;23.344;2023-02-01T13:17:16;95422.66;;;9.16;40.39
20027;BME280;10174;42.688;23.344;2023-02-01T13:22:46;95412.31;;;8.42;41.75
20027;BME280;10174;42.688;23.344;2023-02-01T13:25:32;95414.28;;;7.95;42.31
20027;BME280;10174;42.688;23.344;2023-02-01T13:28:06;95407.72;;;7.69;43.63
20027;BME280;10174;42.688;23.344;2023-02-01T13:30:53;95420.53;;;6.81;44.12
20027;BME280;10174;42.688;23.344;2023-02-01T13:44:14;95390.75;;;5.53;47.42
20027;BME280;10174;42.688;23.344;2023-02-01T13:46:44;95434.25;;;5.66;47.75
20027;BME280;10174;42.688;23.344;2023-02-01T13:49:23;95419.28;;;5.65;48.40
20027;BME280;10174;42.688;23.344;2023-02-01T13:51:55;95357.25;;;5.46;47.83
20027;BME280;10174;42.688;23.344;2023-02-01T13:54:33;95417.03;;;6.04;46.71
20027;BME280;10174;42.688;23.344;2023-02-01T13:57:01;95318.69;;;5.48;46.53
20027;BME280;10174;42.688;23.344;2023-02-01T14:05:54;95415.09;;;6.23;46.85
20027;BME280;10174;42.688;23.344;2023-02-01T14:13:53;95420.84;;;5.96;47.70
20027;BME280;10174;42.688;23.344;2023-02-01T14:16:19;95377.13;;;5.85;47.26
20027;BME280;10174;42.688;23.344;2023-02-01T14:23:44;95294.09;;;5.23;47.31
20027;BME280;10174;42.688;23.344;2023-02-01T14:26:14;95402.06;;;6.03;48.14
20027;BME280;10174;42.688;23.344;2023-02-01T14:28:46;95334.91;;;5.59;48.00
20027;BME280;10174;42.688;23.344;2023-02-01T14:31:18;95405.91;;;6.07;48.14
20027;BME280;10174;42.688;23.344;2023-02-01T14:33:56;95370.38;;;5.71;48.90
20027;BME280;10174;42.688;23.344;2023-02-01T14:36:24;95383.25;;;5.86;48.50
20027;BME280;10174;42.688;23.344;2023-02-01T14:38:50;95342.69;;;5.48;49.20
20027;BME280;10174;42.688;23.344;2023-02-01T14:41:34;95383.34;;;5.67;49.28
20027;BME280;10174;42.688;23.344;2023-02-01T14:49:33;95397.50;;;5.68;49.89
20027;BME280;10174;42.688;23.344;2023-02-01T14:52:02;95415.56;;;5.66;49.58
20027;BME280;10174;42.688;23.344;2023-02-01T14:54:30;95385.53;;;5.47;49.59
20027;BME280;10174;42.688;23.344;2023-02-01T14:56:57;95409.53;;;5.59;49.06
20027;BME280;10174;42.688;23.344;2023-02-01T14:59:25;95403.25;;;5.41;49.68
20027;BME280;10174;42.688;23.344;2023-02-01T15:01:59;95426.19;;;5.42;49.92
20027;BME280;10174;42.688;23.344;2023-02-01T15:04:27;95424.44;;;5.36;50.60
20027;BME280;10174;42.688;23.344;2023-02-01T15:07:04;95414.25;;;5.33;50.50
20027;BME280;10174;42.688;23.344;2023-02-01T15:09:35;95417.81;;;5.27;50.93
20027;BME280;10174;42.688;23.344;2023-02-01T15:14:44;95423.63;;;5.05;51.71
20027;BME280;10174;42.688;23.344;2023-02-01T15:17:25;95411.19;;;4.99;52.03
20027;BME280;10174;42.688;23.344;2023-02-01T15:19:54;95423.38;;;5.07;51.70
20027;BME280;10174;42.688;23.344;2023-02-01T15:22:20;95407.63;;;4.93;52.05
20027;BME280;10174;42.688;23.344;2023-02-01T15:24:52;95413.50;;;4.95;52.70
20027;BME280;10174;42.688;23.344;2023-02-01T15:27:19;95404.28;;;4.98;52.82
20027;BME280;10174;42.688;23.344;2023-02-01T15:29:44;95395.22;;;4.99;52.25
20027;BME280;10174;42.688;23.344;2023-02-01T15:32:37;95388.53;;;5.08;51.66
20027;BME280;10174;42.688;23.344;2023-02-01T15:35:04;95300.56;;;4.42;51.36
20027;BME280;10174;42.688;23.344;2023-02-01T15:37:30;95402.19;;;5.00;52.09
20027;BME280;10174;42.688;23.344;2023-02-01T15:45:19;95402.06;;;4.95;52.38
20027;BME280;10174;42.688;23.344;2023-02-01T15:47:47;95388.47;;;4.85;51.84
20027;BME280;10174;42.688;23.344;2023-02-01T15:50:18;95378.25;;;4.81;51.60
20027;BME280;10174;42.688;23.344;2023-02-01T15:52:47;95386.03;;;4.83;51.87
20027;BME280;10174;42.688;23.344;2023-02-01T15:55:22;95411.41;;;4.86;51.95